Terminal Aerodrome Forecast
Issued by NWS Birmingham, AL

Home | Current Version | Previous Version | Text Only | Print | Product List | Glossary On
Versions: 1 2 3 4 5 6 7 8 9 10 11 12 13 14 15 16 17 18
000
FTUS44 KBMX 302300
TAFBHM
TAF
KBHM 302339Z 3100/3124 18010KT P6SM VCTS SCT050CB BKN150
     FM310300 VRB04KT P6SM BKN050
     FM311200 20007KT P6SM BKN015
     FM311800 23010KT P6SM BKN050=

USA.gov is the U.S. government's official web portal to all federal, state and local government web resources and services.